createdAt,value
2022-10-25T00:02:34.193Z,100484.16
2022-10-25T00:05:37.677Z,100496.66
2022-10-25T00:08:41.248Z,100497.09
2022-10-25T00:11:44.057Z,100507.84
2022-10-25T00:14:46.864Z,100510.63
2022-10-25T00:17:50.506Z,100519.41
2022-10-25T00:20:52.915Z,100515.44
2022-10-25T00:23:55.787Z,100522.63
2022-10-25T00:26:58.304Z,100539.34
2022-10-25T00:30:01.156Z,100533.16
2022-10-25T00:33:04.585Z,100536.75
2022-10-25T00:36:11.166Z,100532.53
2022-10-25T00:39:13.617Z,100522.19
2022-10-25T00:42:25.655Z,100518.87
2022-10-25T00:45:28.609Z,100529.94
2022-10-25T00:48:32.028Z,100530.00
2022-10-25T00:51:38.984Z,100524.81
2022-10-25T00:54:47.456Z,100526.50
2022-10-25T00:57:59.033Z,100529.94
2022-10-25T01:01:05.944Z,100531.53
2022-10-25T01:04:11.704Z,100533.22
2022-10-25T01:07:14.493Z,100533.81
2022-10-25T01:10:17.396Z,100542.56
2022-10-25T01:13:20.385Z,100541.50
2022-10-25T01:16:35.140Z,100536.91
2022-10-25T01:19:49.811Z,100536.75
2022-10-25T01:23:29.974Z,100534.84
2022-10-25T01:26:44.546Z,100551.81
2022-10-25T01:30:04.100Z,100547.12
2022-10-25T01:33:20.140Z,100545.31
2022-10-25T01:36:31.663Z,100533.78
2022-10-25T01:40:03.791Z,100532.22
2022-10-25T01:43:35.653Z,100533.50
2022-10-25T01:46:54.128Z,100536.94
2022-10-25T01:50:02.571Z,100547.97
2022-10-25T01:53:05.242Z,100540.81
2022-10-25T01:56:07.940Z,100539.63
2022-10-25T01:59:54.096Z,100531.22
2022-10-25T02:03:27.363Z,100533.16
2022-10-25T02:06:44.458Z,100528.19
2022-10-25T02:10:09.361Z,100526.75
2022-10-25T02:13:24.361Z,100532.22
2022-10-25T02:16:32.234Z,100522.19
2022-10-25T02:19:41.391Z,100528.84
2022-10-25T02:22:45.651Z,100518.00
2022-10-25T02:25:49.850Z,100520.16
2022-10-25T02:28:54.572Z,100525.88
2022-10-25T02:31:57.708Z,100523.84
2022-10-25T02:35:00.199Z,100518.47
2022-10-25T02:38:03.501Z,100509.78
2022-10-25T02:41:06.279Z,100517.88
2022-10-25T02:44:09.000Z,100513.25
2022-10-25T02:47:12.004Z,100509.44
2022-10-25T02:50:14.967Z,100500.25
2022-10-25T02:53:17.682Z,100499.81
2022-10-25T02:56:21.912Z,100509.25
2022-10-25T02:59:24.544Z,100517.59
2022-10-25T03:02:27.480Z,100501.87
2022-10-25T03:05:29.890Z,100502.53
2022-10-25T03:08:32.728Z,100512.00
2022-10-25T03:11:35.215Z,100516.56
2022-10-25T03:14:37.904Z,100530.19
2022-10-25T03:17:40.383Z,100524.50
2022-10-25T03:20:43.748Z,100530.22
2022-10-25T03:23:46.147Z,100529.91
2022-10-25T03:26:49.079Z,100530.22
2022-10-25T03:29:51.560Z,100532.19
2022-10-25T03:32:54.291Z,100515.22
2022-10-25T03:35:56.782Z,100525.00
2022-10-25T03:38:59.535Z,100521.63
2022-10-25T03:42:02.006Z,100533.94
2022-10-25T03:45:05.263Z,100552.94
2022-10-25T03:48:07.858Z,100552.09
2022-10-25T03:51:10.522Z,100539.06
2022-10-25T03:54:12.890Z,100565.00
2022-10-25T03:57:15.563Z,100546.72
2022-10-25T04:00:20.511Z,100549.75
2022-10-25T04:03:24.088Z,100523.31
2022-10-25T04:06:26.575Z,100514.13
2022-10-25T04:09:29.534Z,100518.19
2022-10-25T04:12:31.960Z,100509.44
2022-10-25T04:15:34.676Z,100515.44
2022-10-25T04:18:37.148Z,100518.44
2022-10-25T04:21:39.891Z,100518.63
2022-10-25T04:24:42.311Z,100518.19
2022-10-25T04:27:45.222Z,100517.38
2022-10-25T04:30:47.850Z,100519.63
2022-10-25T04:33:51.909Z,100513.22
2022-10-25T04:36:54.361Z,100522.31
2022-10-25T04:39:57.093Z,100522.31
2022-10-25T04:43:03.179Z,100521.03
2022-10-25T04:46:06.138Z,100522.63
2022-10-25T04:49:11.796Z,100534.75
2022-10-25T04:52:15.491Z,100526.59
2022-10-25T04:55:17.835Z,100537.09
2022-10-25T04:58:21.098Z,100537.81
2022-10-25T05:01:23.661Z,100521.81
2022-10-25T05:04:26.324Z,100515.06
2022-10-25T05:07:28.801Z,100519.94
2022-10-25T05:10:31.539Z,100533.91
2022-10-25T05:13:36.292Z,100534.44
2022-10-25T05:16:39.359Z,100527.84
2022-10-25T05:19:41.855Z,100527.84
2022-10-25T05:22:44.785Z,100535.69
2022-10-25T05:25:47.745Z,100524.84
2022-10-25T05:28:53.356Z,100529.53
2022-10-25T05:31:55.812Z,100533.06
2022-10-25T05:34:58.647Z,100532.47
2022-10-25T05:38:02.343Z,100544.12
2022-10-25T05:41:05.282Z,100556.84
2022-10-25T05:44:07.820Z,100565.91
2022-10-25T05:47:10.689Z,100584.69
2022-10-25T05:50:13.303Z,100594.47
2022-10-25T05:53:16.055Z,100609.41
2022-10-25T05:56:19.987Z,100616.44
2022-10-25T05:59:22.679Z,100626.25
2022-10-25T06:02:25.300Z,100630.16
2022-10-25T06:05:28.024Z,100638.31
2022-10-25T06:08:31.007Z,100627.72
2022-10-25T06:11:34.297Z,100623.00
2022-10-25T06:14:36.778Z,100622.19
2022-10-25T06:17:39.474Z,100632.09
2022-10-25T06:23:45.944Z,100662.72
2022-10-25T06:26:48.477Z,100666.94
2022-10-25T06:29:51.421Z,100683.12
2022-10-25T06:32:54.834Z,100690.19
2022-10-25T06:35:58.289Z,100678.50
2022-10-25T06:39:05.500Z,100687.00
2022-10-25T06:42:09.501Z,100680.00
2022-10-25T06:45:12.133Z,100692.25
2022-10-25T06:48:14.880Z,100694.37
2022-10-25T06:51:17.644Z,100696.41
2022-10-25T06:54:20.555Z,100689.94
2022-10-25T06:57:23.044Z,100689.16
2022-10-25T07:00:25.884Z,100687.41
2022-10-25T07:03:36.476Z,100685.44
2022-10-25T07:06:39.387Z,100682.34
2022-10-25T07:09:42.176Z,100673.03
2022-10-25T07:12:45.634Z,100675.34
2022-10-25T07:15:48.694Z,100668.78
2022-10-25T07:18:52.542Z,100672.25
2022-10-25T07:21:55.239Z,100672.66
2022-10-25T07:24:57.926Z,100676.44
2022-10-25T07:28:00.366Z,100679.72
2022-10-25T07:31:03.367Z,100686.06
2022-10-25T07:34:06.132Z,100681.47
2022-10-25T07:37:08.880Z,100683.88
2022-10-25T07:40:11.465Z,100681.13
2022-10-25T07:43:14.111Z,100685.03
2022-10-25T07:46:16.629Z,100688.41
2022-10-25T07:49:21.542Z,100689.38
2022-10-25T07:52:24.075Z,100701.31
2022-10-25T07:55:26.924Z,100706.47
2022-10-25T07:58:29.581Z,100709.44
2022-10-25T08:01:32.362Z,100709.06
2022-10-25T08:04:35.160Z,100723.72
2022-10-25T08:07:37.855Z,100722.09
2022-10-25T08:10:44.662Z,100715.28
2022-10-25T08:13:49.953Z,100720.16
2022-10-25T08:16:52.635Z,100727.09
2022-10-25T08:19:55.141Z,100727.47
2022-10-25T08:22:58.740Z,100731.00
2022-10-25T08:26:02.224Z,100728.81
2022-10-25T08:29:04.883Z,100722.09
2022-10-25T08:32:07.354Z,100722.44
2022-10-25T08:35:10.113Z,100713.66
2022-10-25T08:38:12.601Z,100709.00
2022-10-25T08:41:25.172Z,100701.66
2022-10-25T08:45:29.196Z,100705.88
2022-10-25T08:48:39.307Z,100718.00
2022-10-25T08:51:45.319Z,100728.81
2022-10-25T08:54:48.616Z,100725.44
2022-10-25T08:57:52.489Z,100742.69
2022-10-25T09:00:56.972Z,100732.41
2022-10-25T09:03:59.870Z,100741.03
2022-10-25T09:07:42.086Z,100750.75
2022-10-25T09:10:50.946Z,100756.09
2022-10-25T09:14:09.344Z,100758.25
2022-10-25T09:17:19.625Z,100754.53
2022-10-25T09:20:32.866Z,100759.75
2022-10-25T09:23:35.406Z,100752.09
2022-10-25T09:26:38.069Z,100757.12
2022-10-25T09:29:54.264Z,100749.41
2022-10-25T09:33:02.942Z,100751.47
2022-10-25T09:36:05.817Z,100742.28
2022-10-25T09:40:03.397Z,100748.84
2022-10-25T09:43:17.244Z,100757.25
2022-10-25T09:46:37.726Z,100746.34
2022-10-25T09:49:49.088Z,100750.25
2022-10-25T09:53:12.292Z,100753.16
2022-10-25T09:56:17.242Z,100746.22
2022-10-25T09:59:20.013Z,100740.47
2022-10-25T10:02:24.965Z,100753.50
2022-10-25T10:05:28.900Z,100764.47
2022-10-25T10:08:34.710Z,100762.28
2022-10-25T10:11:38.525Z,100767.16
2022-10-25T10:14:50.661Z,100775.94
2022-10-25T10:18:29.553Z,100781.16
2022-10-25T10:21:33.686Z,100776.28
2022-10-25T10:24:40.598Z,100780.66
2022-10-25T10:27:46.206Z,100770.50
2022-10-25T10:30:58.230Z,100766.22
2022-10-25T10:34:00.771Z,100755.06
2022-10-25T10:37:12.702Z,100761.44
2022-10-25T10:40:18.567Z,100766.59
2022-10-25T10:43:28.249Z,100759.22
2022-10-25T10:46:30.866Z,100746.25
2022-10-25T10:49:43.043Z,100755.13
2022-10-25T10:52:46.976Z,100759.88
2022-10-25T10:55:52.778Z,100766.06
2022-10-25T10:58:55.325Z,100770.66
2022-10-25T11:02:10.297Z,100763.28
2022-10-25T11:05:19.169Z,100769.09
2022-10-25T11:08:22.196Z,100771.81
2022-10-25T11:11:24.793Z,100778.94
2022-10-25T11:14:28.052Z,100767.59
2022-10-25T11:17:36.377Z,100773.25
2022-10-25T11:21:04.669Z,100763.56
2022-10-25T11:24:25.847Z,100765.69
2022-10-25T11:27:55.685Z,100763.66
2022-10-25T11:31:15.687Z,100756.34
2022-10-25T11:34:41.345Z,100761.38
2022-10-25T11:38:02.971Z,100763.91
2022-10-25T11:41:28.701Z,100766.28
2022-10-25T11:44:52.524Z,100766.31
2022-10-25T11:48:49.687Z,100761.06
2022-10-25T11:52:04.124Z,100759.13
2022-10-25T11:55:15.682Z,100761.09
2022-10-25T11:58:30.017Z,100764.22
2022-10-25T12:02:07.852Z,100752.47
2022-10-25T12:05:32.626Z,100752.94
2022-10-25T12:08:47.108Z,100757.72
2022-10-25T12:11:59.970Z,100746.28
2022-10-25T12:15:03.267Z,100751.12
2022-10-25T12:18:10.494Z,100747.53
2022-10-25T12:21:21.732Z,100752.31
2022-10-25T12:24:35.725Z,100749.03
2022-10-25T12:27:38.865Z,100761.84
2022-10-25T12:30:42.948Z,100756.41
2022-10-25T12:34:07.481Z,100773.00
2022-10-25T12:37:35.082Z,100769.84
2022-10-25T12:40:43.285Z,100768.56
2022-10-25T12:44:07.172Z,100765.75
2022-10-25T12:47:24.888Z,100771.09
2022-10-25T12:50:44.807Z,100768.22
2022-10-25T12:54:14.489Z,100758.28
2022-10-25T12:57:48.529Z,100766.25
2022-10-25T13:01:25.678Z,100758.87
2022-10-25T13:04:47.394Z,100752.28
2022-10-25T13:07:54.370Z,100749.75
2022-10-25T13:11:00.098Z,100752.28
2022-10-25T13:14:03.679Z,100753.31
2022-10-25T13:17:18.559Z,100748.06
2022-10-25T13:20:22.827Z,100750.06
2022-10-25T13:23:44.173Z,100757.22
2022-10-25T13:27:16.984Z,100748.38
2022-10-25T13:30:26.249Z,100756.81
2022-10-25T13:33:33.350Z,100743.66
2022-10-25T13:36:48.122Z,100751.75
2022-10-25T13:39:54.301Z,100756.28
2022-10-25T13:43:18.202Z,100757.38
2022-10-25T13:46:26.692Z,100763.06
2022-10-25T13:49:36.320Z,100769.37
2022-10-25T13:52:50.952Z,100771.81
2022-10-25T13:56:03.022Z,100772.13
2022-10-25T13:59:36.414Z,100771.00
2022-10-25T14:03:10.297Z,100765.50
2022-10-25T14:06:28.343Z,100774.06
2022-10-25T14:09:39.935Z,100774.56
2022-10-25T14:12:48.703Z,100772.37
2022-10-25T14:16:03.159Z,100769.37
2022-10-25T14:19:15.924Z,100780.13
2022-10-25T14:22:30.323Z,100772.03
2022-10-25T14:25:41.716Z,100778.28
2022-10-25T14:28:44.130Z,100785.44
2022-10-25T14:31:47.764Z,100783.47
2022-10-25T14:34:53.204Z,100793.84
2022-10-25T14:37:56.123Z,100780.19
2022-10-25T14:41:00.961Z,100789.84
2022-10-25T14:44:29.775Z,100781.22
2022-10-25T14:47:33.788Z,100780.47
2022-10-25T14:50:37.625Z,100783.50
2022-10-25T14:53:53.855Z,100786.09
2022-10-25T14:56:59.450Z,100783.63
2022-10-25T15:00:04.165Z,100781.38
2022-10-25T15:03:08.405Z,100788.12
2022-10-25T15:06:14.544Z,100791.41
2022-10-25T15:12:51.280Z,100782.28
2022-10-25T15:15:54.911Z,100780.84
2022-10-25T15:19:09.502Z,100786.72
2022-10-25T15:22:15.732Z,100789.78
2022-10-25T15:25:19.472Z,100785.38
2022-10-25T15:28:23.183Z,100778.56
2022-10-25T15:31:28.087Z,100793.63
2022-10-25T15:34:30.844Z,100788.75
2022-10-25T15:37:33.280Z,100801.94
2022-10-25T15:40:36.356Z,100805.75
2022-10-25T15:43:38.712Z,100803.44
2022-10-25T15:46:41.504Z,100811.16
2022-10-25T15:49:44.042Z,100802.66
2022-10-25T15:52:47.018Z,100808.75
2022-10-25T15:55:50.630Z,100809.63
2022-10-25T15:58:53.401Z,100813.00
2022-10-25T16:01:55.923Z,100808.28
2022-10-25T16:04:58.814Z,100803.53
2022-10-25T16:08:01.609Z,100794.78
2022-10-25T16:11:04.510Z,100798.88
2022-10-25T16:14:12.705Z,100800.38
2022-10-25T16:17:15.408Z,100804.31
2022-10-25T16:20:21.062Z,100806.31
2022-10-25T16:23:25.028Z,100802.78
2022-10-25T16:26:36.620Z,100797.03
2022-10-25T16:29:47.299Z,100807.19
2022-10-25T16:32:50.181Z,100807.56
2022-10-25T16:35:53.209Z,100814.94
2022-10-25T16:38:55.686Z,100813.25
2022-10-25T16:41:58.527Z,100819.00
2022-10-25T16:45:02.400Z,100819.38
2022-10-25T16:48:06.081Z,100819.63
2022-10-25T16:51:16.812Z,100819.38
2022-10-25T16:54:23.880Z,100820.59
2022-10-25T16:57:26.895Z,100826.28
2022-10-25T17:00:32.495Z,100833.75
2022-10-25T17:03:35.116Z,100831.44
2022-10-25T17:06:42.341Z,100827.44
2022-10-25T17:09:46.064Z,100832.16
2022-10-25T17:12:51.658Z,100837.47
2022-10-25T17:15:54.687Z,100836.75
2022-10-25T17:18:58.047Z,100845.06
2022-10-25T17:22:01.024Z,100845.97
2022-10-25T17:25:06.611Z,100854.41
2022-10-25T17:28:09.295Z,100852.66
2022-10-25T17:31:14.499Z,100853.78
2022-10-25T17:34:19.028Z,100860.19
2022-10-25T17:37:22.482Z,100857.16
2022-10-25T17:40:25.376Z,100865.31
2022-10-25T17:43:28.659Z,100862.06
2022-10-25T17:46:32.322Z,100862.28
2022-10-25T17:49:35.363Z,100861.84
2022-10-25T17:52:41.260Z,100859.91
2022-10-25T17:55:45.294Z,100869.28
2022-10-25T17:58:49.357Z,100861.22
2022-10-25T18:01:52.682Z,100861.03
2022-10-25T18:05:19.065Z,100851.47
2022-10-25T18:08:19.105Z,100859.50
2022-10-25T18:11:23.745Z,100854.78
2022-10-25T18:14:26.502Z,100858.69
2022-10-25T18:17:29.866Z,100859.69
2022-10-25T18:20:32.762Z,100861.34
2022-10-25T18:23:38.816Z,100851.47
2022-10-25T18:26:41.663Z,100852.66
2022-10-25T18:29:44.721Z,100852.38
2022-10-25T18:32:47.544Z,100849.97
2022-10-25T18:35:57.312Z,100850.59
2022-10-25T18:39:00.136Z,100856.81
2022-10-25T18:42:04.424Z,100847.13
2022-10-25T18:45:07.883Z,100840.37
2022-10-25T18:48:13.765Z,100847.88
2022-10-25T18:51:16.484Z,100846.66
2022-10-25T18:54:20.610Z,100856.94
2022-10-25T18:57:23.775Z,100859.34
2022-10-25T19:00:27.817Z,100856.06
2022-10-25T19:03:30.511Z,100860.37
2022-10-25T19:06:34.113Z,100850.50
2022-10-25T19:09:36.871Z,100856.91
2022-10-25T19:12:40.106Z,100850.22
2022-10-25T19:15:43.461Z,100847.03
2022-10-25T19:18:47.249Z,100846.41
2022-10-25T19:21:50.072Z,100856.38
2022-10-25T19:24:54.217Z,100862.81
2022-10-25T19:27:57.196Z,100854.56
2022-10-25T19:31:12.665Z,100857.63
2022-10-25T19:34:15.449Z,100863.78
2022-10-25T19:37:19.508Z,100862.44
2022-10-25T19:40:22.344Z,100873.69
2022-10-25T19:43:25.428Z,100873.94
2022-10-25T19:46:28.191Z,100876.09
2022-10-25T19:49:31.443Z,100875.09
2022-10-25T19:52:35.893Z,100877.91
2022-10-25T19:55:38.947Z,100878.66
2022-10-25T19:58:42.318Z,100878.31
2022-10-25T20:01:47.533Z,100884.84
2022-10-25T20:04:50.936Z,100890.81
2022-10-25T20:07:53.622Z,100881.50
2022-10-25T20:10:57.087Z,100902.03
2022-10-25T20:14:01.957Z,100899.72
2022-10-25T20:17:06.318Z,100896.47
2022-10-25T20:20:10.233Z,100889.66
2022-10-25T20:23:13.928Z,100893.84
2022-10-25T20:26:25.981Z,100894.87
2022-10-25T20:29:29.269Z,100899.97
2022-10-25T20:32:31.919Z,100900.41
2022-10-25T20:35:40.032Z,100899.91
2022-10-25T20:38:43.111Z,100905.38
2022-10-25T20:41:46.230Z,100911.66
2022-10-25T20:44:48.947Z,100913.59
2022-10-25T20:47:57.883Z,100918.13
2022-10-25T20:51:04.112Z,100924.31
2022-10-25T20:54:10.088Z,100922.75
2022-10-25T20:57:12.599Z,100919.31
2022-10-25T21:00:20.548Z,100921.06
2022-10-25T21:03:27.850Z,100925.59
2022-10-25T21:06:30.916Z,100928.37
2022-10-25T21:09:33.387Z,100930.19
2022-10-25T21:12:36.091Z,100929.47
2022-10-25T21:15:38.981Z,100930.72
2022-10-25T21:18:42.905Z,100936.91
2022-10-25T21:21:45.392Z,100923.97
2022-10-25T21:24:48.135Z,100927.28
2022-10-25T21:27:54.611Z,100924.91
2022-10-25T21:31:01.556Z,100931.00
2022-10-25T21:34:04.667Z,100927.06
2022-10-25T21:37:07.517Z,100927.78
2022-10-25T21:40:10.577Z,100934.84
2022-10-25T21:43:13.278Z,100931.50
2022-10-25T21:46:18.006Z,100929.81
2022-10-25T21:49:20.808Z,100932.41
2022-10-25T21:52:23.608Z,100937.59
2022-10-25T21:55:26.305Z,100940.16
2022-10-25T21:58:31.635Z,100936.81
2022-10-25T22:01:34.488Z,100942.75
2022-10-25T22:04:37.325Z,100937.97
2022-10-25T22:07:39.683Z,100930.62
2022-10-25T22:10:42.376Z,100938.75
2022-10-25T22:13:45.896Z,100944.03
2022-10-25T22:16:48.579Z,100944.03
2022-10-25T22:19:51.059Z,100934.56
2022-10-25T22:22:53.784Z,100941.28
2022-10-25T22:26:02.838Z,100950.84
2022-10-25T22:29:06.400Z,100937.06
2022-10-25T22:32:08.848Z,100944.22
2022-10-25T22:35:11.664Z,100948.66
2022-10-25T22:38:14.245Z,100947.94
2022-10-25T22:41:19.711Z,100953.25
2022-10-25T22:47:29.745Z,100941.31
2022-10-25T22:50:32.163Z,100938.00
2022-10-25T22:53:35.825Z,100933.81
2022-10-25T22:56:38.262Z,100936.53
2022-10-25T22:59:41.020Z,100931.41
2022-10-25T23:02:43.440Z,100939.00
2022-10-25T23:05:46.117Z,100936.41
2022-10-25T23:08:48.777Z,100942.44
2022-10-25T23:11:51.431Z,100935.50
2022-10-25T23:14:53.832Z,100937.16
2022-10-25T23:17:59.368Z,100947.59
2022-10-25T23:21:03.360Z,100945.00
2022-10-25T23:24:06.256Z,100943.41
2022-10-25T23:27:08.677Z,100937.41
2022-10-25T23:30:13.200Z,100934.12
2022-10-25T23:33:17.084Z,100931.41
2022-10-25T23:36:22.652Z,100938.34
2022-10-25T23:39:25.026Z,100934.63
2022-10-25T23:42:27.804Z,100940.16
2022-10-25T23:45:32.181Z,100934.47
2022-10-25T23:48:34.972Z,100939.75
2022-10-25T23:51:37.390Z,100935.91
2022-10-25T23:54:40.151Z,100932.66
2022-10-25T23:57:42.781Z,100929.44
